GOGG

Ziguinchor Airport

Ziguinchor, Senegal
METAR GOGG 220300Z 04004KT CAVOK 26/26 Q1012
Observed Flight Rules
Sep-22 @ 03:00 UTC (55 minutes ago) Visual Flight Rules
Wind Visibility Clouds
40° at 4 knots 10,000+ meters
Temperatures Readings
Current 26°C / 79°F
Dewpoint 26°C / 79°F
Humidity 100%
Altimeter 29.88" Hg
Pressure 1012 hPa
Elevation 23
METAR GOGG 220300Z 04004KT CAVOK 26/26 Q1012
Observed Flight Rules
Sep-22 @ 03:00 UTC
(55 minutes ago)
VFR
Wind Visibility
40° at 4 knots 10,000+ meters
Clouds
Temperature Dewpoint
26°C / 79°F 26°C / 79°F
Humidity Altimeter Pressure
100% 29.88" Hg 1012 hPa